sensor_id;sensor_type;location;lat;lon;timestamp;pressure;altitude;pressure_sealevel;temperature;humidity
37856;BME280;23694;43.274;26.924;2023-02-19T00:01:25;98815.28;;;11.56;49.85
37856;BME280;23694;43.274;26.924;2023-02-19T00:03:53;98828.06;;;11.60;49.39
37856;BME280;23694;43.274;26.924;2023-02-19T00:06:21;98824.38;;;11.63;49.57
37856;BME280;23694;43.274;26.924;2023-02-19T00:08:48;98821.63;;;11.64;49.55
37856;BME280;23694;43.274;26.924;2023-02-19T00:11:17;98798.94;;;11.52;49.69
37856;BME280;23694;43.274;26.924;2023-02-19T00:13:45;98809.19;;;11.55;49.94
37856;BME280;23694;43.274;26.924;2023-02-19T00:16:21;98805.97;;;11.52;50.02
37856;BME280;23694;43.274;26.924;2023-02-19T00:18:48;98807.97;;;11.48;50.00
37856;BME280;23694;43.274;26.924;2023-02-19T00:21:14;98814.28;;;11.46;50.15
37856;BME280;23694;43.274;26.924;2023-02-19T00:23:41;98807.16;;;11.48;50.25
37856;BME280;23694;43.274;26.924;2023-02-19T00:26:09;98804.41;;;11.49;50.06
37856;BME280;23694;43.274;26.924;2023-02-19T00:28:37;98801.91;;;11.48;50.00
37856;BME280;23694;43.274;26.924;2023-02-19T00:31:08;98804.19;;;11.52;49.61
37856;BME280;23694;43.274;26.924;2023-02-19T00:33:37;98795.00;;;11.47;49.82
37856;BME280;23694;43.274;26.924;2023-02-19T00:36:04;98793.09;;;11.49;49.72
37856;BME280;23694;43.274;26.924;2023-02-19T00:38:34;98785.66;;;11.42;49.61
37856;BME280;23694;43.274;26.924;2023-02-19T00:41:00;98795.56;;;11.39;49.84
37856;BME280;23694;43.274;26.924;2023-02-19T00:43:26;98786.50;;;11.43;49.90
37856;BME280;23694;43.274;26.924;2023-02-19T00:45:52;98777.81;;;11.42;49.99
37856;BME280;23694;43.274;26.924;2023-02-19T00:48:18;98773.63;;;11.40;49.98
37856;BME280;23694;43.274;26.924;2023-02-19T00:50:44;98774.84;;;11.47;49.89
37856;BME280;23694;43.274;26.924;2023-02-19T00:53:10;98771.25;;;11.48;49.76
37856;BME280;23694;43.274;26.924;2023-02-19T00:55:36;98774.94;;;11.46;50.00
37856;BME280;23694;43.274;26.924;2023-02-19T00:58:03;98765.91;;;11.50;49.84
37856;BME280;23694;43.274;26.924;2023-02-19T01:00:29;98766.97;;;11.47;49.98
37856;BME280;23694;43.274;26.924;2023-02-19T01:02:55;98772.06;;;11.37;50.45
37856;BME280;23694;43.274;26.924;2023-02-19T01:05:21;98762.19;;;11.41;49.93
37856;BME280;23694;43.274;26.924;2023-02-19T01:07:47;98758.97;;;11.37;50.28
37856;BME280;23694;43.274;26.924;2023-02-19T01:10:13;98766.25;;;11.45;49.85
37856;BME280;23694;43.274;26.924;2023-02-19T01:12:39;98755.88;;;11.43;50.04
37856;BME280;23694;43.274;26.924;2023-02-19T01:15:05;98761.50;;;11.50;49.83
37856;BME280;23694;43.274;26.924;2023-02-19T01:17:31;98752.78;;;11.50;49.44
37856;BME280;23694;43.274;26.924;2023-02-19T01:19:57;98765.31;;;11.46;49.69
37856;BME280;23694;43.274;26.924;2023-02-19T01:22:23;98756.97;;;11.52;49.33
37856;BME280;23694;43.274;26.924;2023-02-19T01:24:49;98760.66;;;11.50;49.33
37856;BME280;23694;43.274;26.924;2023-02-19T01:27:15;98752.41;;;11.43;49.77
37856;BME280;23694;43.274;26.924;2023-02-19T01:29:41;98765.31;;;11.46;49.63
37856;BME280;23694;43.274;26.924;2023-02-19T01:32:08;98760.19;;;11.56;49.19
37856;BME280;23694;43.274;26.924;2023-02-19T01:34:34;98754.84;;;11.57;48.76
37856;BME280;23694;43.274;26.924;2023-02-19T01:37:00;98748.38;;;11.50;48.80
37856;BME280;23694;43.274;26.924;2023-02-19T01:39:26;98749.34;;;11.60;48.68
37856;BME280;23694;43.274;26.924;2023-02-19T01:41:52;98748.28;;;11.63;48.47
37856;BME280;23694;43.274;26.924;2023-02-19T01:46:45;98739.56;;;11.51;48.76
37856;BME280;23694;43.274;26.924;2023-02-19T01:49:29;98745.75;;;11.50;48.83
37856;BME280;23694;43.274;26.924;2023-02-19T01:51:59;98755.88;;;11.43;48.68
37856;BME280;23694;43.274;26.924;2023-02-19T01:54:31;98755.38;;;11.38;48.74
37856;BME280;23694;43.274;26.924;2023-02-19T01:57:01;98747.78;;;11.47;48.55
37856;BME280;23694;43.274;26.924;2023-02-19T01:59:30;98731.66;;;11.40;48.33
37856;BME280;23694;43.274;26.924;2023-02-19T02:01:57;98745.88;;;11.49;48.44
37856;BME280;23694;43.274;26.924;2023-02-19T02:04:24;98736.22;;;11.49;48.12
37856;BME280;23694;43.274;26.924;2023-02-19T02:06:53;98738.13;;;11.47;48.00
37856;BME280;23694;43.274;26.924;2023-02-19T02:09:21;98733.91;;;11.33;48.30
37856;BME280;23694;43.274;26.924;2023-02-19T02:12:08;98733.56;;;11.38;47.91
37856;BME280;23694;43.274;26.924;2023-02-19T02:14:36;98738.69;;;11.39;47.81
37856;BME280;23694;43.274;26.924;2023-02-19T02:23:02;98732.84;;;11.36;47.33
37856;BME280;23694;43.274;26.924;2023-02-19T02:31:17;98734.41;;;11.38;47.19
37856;BME280;23694;43.274;26.924;2023-02-19T02:36:35;98743.81;;;11.41;46.92
37856;BME280;23694;43.274;26.924;2023-02-19T02:39:05;98725.09;;;11.34;46.95
37856;BME280;23694;43.274;26.924;2023-02-19T02:41:33;98725.69;;;11.38;46.88
37856;BME280;23694;43.274;26.924;2023-02-19T02:43:59;98726.41;;;11.40;46.53
37856;BME280;23694;43.274;26.924;2023-02-19T02:46:29;98736.19;;;11.38;46.57
37856;BME280;23694;43.274;26.924;2023-02-19T02:49:03;98730.81;;;11.28;46.96
37856;BME280;23694;43.274;26.924;2023-02-19T02:51:36;98741.41;;;11.27;46.92
37856;BME280;23694;43.274;26.924;2023-02-19T02:57:09;98726.97;;;11.21;46.86
37856;BME280;23694;43.274;26.924;2023-02-19T02:59:40;98719.09;;;11.21;46.97
37856;BME280;23694;43.274;26.924;2023-02-19T03:02:17;98719.66;;;11.14;46.86
37856;BME280;23694;43.274;26.924;2023-02-19T03:08:04;98735.75;;;11.09;46.76
37856;BME280;23694;43.274;26.924;2023-02-19T03:10:44;98744.69;;;10.94;47.53
37856;BME280;23694;43.274;26.924;2023-02-19T03:13:17;98746.16;;;10.98;47.22
37856;BME280;23694;43.274;26.924;2023-02-19T03:16:15;98745.50;;;11.07;46.55
37856;BME280;23694;43.274;26.924;2023-02-19T03:19:03;98757.19;;;11.14;46.17
37856;BME280;23694;43.274;26.924;2023-02-19T03:21:50;98754.50;;;11.27;45.75
37856;BME280;23694;43.274;26.924;2023-02-19T03:24:20;98760.97;;;11.34;45.63
37856;BME280;23694;43.274;26.924;2023-02-19T03:27:06;98777.53;;;11.34;45.48
37856;BME280;23694;43.274;26.924;2023-02-19T03:29:36;98780.44;;;11.42;45.21
37856;BME280;23694;43.274;26.924;2023-02-19T03:32:09;98778.16;;;11.38;45.43
37856;BME280;23694;43.274;26.924;2023-02-19T03:34:37;98778.38;;;11.35;45.53
37856;BME280;23694;43.274;26.924;2023-02-19T03:37:13;98788.41;;;11.41;45.33
37856;BME280;23694;43.274;26.924;2023-02-19T03:39:40;98770.75;;;11.32;45.50
37856;BME280;23694;43.274;26.924;2023-02-19T03:47:41;98779.31;;;11.34;45.62
37856;BME280;23694;43.274;26.924;2023-02-19T03:50:24;98786.84;;;11.38;45.37
37856;BME280;23694;43.274;26.924;2023-02-19T03:58:35;98791.00;;;11.30;45.63
37856;BME280;23694;43.274;26.924;2023-02-19T04:01:09;98790.59;;;11.23;45.83
37856;BME280;23694;43.274;26.924;2023-02-19T04:04:02;98781.22;;;11.32;45.40
37856;BME280;23694;43.274;26.924;2023-02-19T04:06:32;98773.81;;;11.26;45.52
37856;BME280;23694;43.274;26.924;2023-02-19T04:09:02;98777.78;;;11.31;45.28
37856;BME280;23694;43.274;26.924;2023-02-19T04:11:30;98770.00;;;11.30;45.53
37856;BME280;23694;43.274;26.924;2023-02-19T04:14:16;98770.75;;;11.32;45.61
37856;BME280;23694;43.274;26.924;2023-02-19T04:16:48;98778.34;;;11.24;45.63
37856;BME280;23694;43.274;26.924;2023-02-19T04:19:17;98795.13;;;11.21;45.85
37856;BME280;23694;43.274;26.924;2023-02-19T04:21:45;98797.13;;;11.18;45.83
37856;BME280;23694;43.274;26.924;2023-02-19T04:24:16;98792.50;;;11.21;45.61
37856;BME280;23694;43.274;26.924;2023-02-19T04:26:44;98784.53;;;11.23;45.90
37856;BME280;23694;43.274;26.924;2023-02-19T04:29:11;98787.03;;;11.24;45.75
37856;BME280;23694;43.274;26.924;2023-02-19T04:31:37;98804.78;;;11.21;45.72
37856;BME280;23694;43.274;26.924;2023-02-19T04:34:03;98793.63;;;11.06;46.67
37856;BME280;23694;43.274;26.924;2023-02-19T04:36:31;98797.09;;;11.06;46.05
37856;BME280;23694;43.274;26.924;2023-02-19T04:38:57;98804.59;;;11.11;46.36
37856;BME280;23694;43.274;26.924;2023-02-19T04:41:24;98801.16;;;11.10;46.00
37856;BME280;23694;43.274;26.924;2023-02-19T04:43:50;98821.63;;;11.05;46.08
37856;BME280;23694;43.274;26.924;2023-02-19T04:46:16;98821.63;;;10.93;46.96
37856;BME280;23694;43.274;26.924;2023-02-19T04:48:42;98825.72;;;10.97;46.95
37856;BME280;23694;43.274;26.924;2023-02-19T04:51:09;98821.75;;;10.91;47.05
37856;BME280;23694;43.274;26.924;2023-02-19T04:53:36;98830.84;;;10.98;46.89
37856;BME280;23694;43.274;26.924;2023-02-19T04:56:10;98835.47;;;10.95;46.95
37856;BME280;23694;43.274;26.924;2023-02-19T04:58:37;98832.63;;;10.98;46.85
37856;BME280;23694;43.274;26.924;2023-02-19T05:01:06;98839.13;;;10.92;46.94
37856;BME280;23694;43.274;26.924;2023-02-19T05:03:33;98842.19;;;10.86;47.26
37856;BME280;23694;43.274;26.924;2023-02-19T05:06:10;98847.66;;;10.83;47.43
37856;BME280;23694;43.274;26.924;2023-02-19T05:08:37;98853.50;;;10.87;47.33
37856;BME280;23694;43.274;26.924;2023-02-19T05:11:05;98856.78;;;10.77;47.71
37856;BME280;23694;43.274;26.924;2023-02-19T05:13:31;98853.63;;;10.85;47.48
37856;BME280;23694;43.274;26.924;2023-02-19T05:16:03;98860.28;;;11.15;46.79
37856;BME280;23694;43.274;26.924;2023-02-19T05:18:30;98855.16;;;11.37;46.33
37856;BME280;23694;43.274;26.924;2023-02-19T05:20:57;98862.03;;;11.62;45.55
37856;BME280;23694;43.274;26.924;2023-02-19T05:23:24;98850.25;;;11.80;45.15
37856;BME280;23694;43.274;26.924;2023-02-19T05:25:51;98847.47;;;12.17;44.27
37856;BME280;23694;43.274;26.924;2023-02-19T05:28:17;98846.19;;;12.45;43.58
37856;BME280;23694;43.274;26.924;2023-02-19T05:30:51;98830.63;;;12.97;42.49
37856;BME280;23694;43.274;26.924;2023-02-19T05:33:18;98827.97;;;13.31;41.72
37856;BME280;23694;43.274;26.924;2023-02-19T05:35:48;98836.13;;;13.49;41.18
37856;BME280;23694;43.274;26.924;2023-02-19T05:38:15;98829.38;;;13.67;40.89
37856;BME280;23694;43.274;26.924;2023-02-19T05:40:42;98820.03;;;13.42;41.19
37856;BME280;23694;43.274;26.924;2023-02-19T05:43:08;98834.16;;;13.73;40.38
37856;BME280;23694;43.274;26.924;2023-02-19T05:45:34;98842.31;;;14.12;39.60
37856;BME280;23694;43.274;26.924;2023-02-19T05:48:02;98840.63;;;14.32;39.38
37856;BME280;23694;43.274;26.924;2023-02-19T05:50:29;98852.94;;;14.42;39.22
37856;BME280;23694;43.274;26.924;2023-02-19T05:52:59;98846.78;;;14.42;39.06
37856;BME280;23694;43.274;26.924;2023-02-19T05:55:26;98859.72;;;13.82;39.70
37856;BME280;23694;43.274;26.924;2023-02-19T05:57:52;98847.13;;;13.22;40.88
37856;BME280;23694;43.274;26.924;2023-02-19T06:00:19;98854.53;;;13.17;41.39
37856;BME280;23694;43.274;26.924;2023-02-19T06:02:46;98861.22;;;12.98;41.77
37856;BME280;23694;43.274;26.924;2023-02-19T06:05:12;98869.13;;;12.76;42.42
37856;BME280;23694;43.274;26.924;2023-02-19T06:07:38;98879.03;;;12.84;42.63
37856;BME280;23694;43.274;26.924;2023-02-19T06:10:06;98887.63;;;12.97;42.24
37856;BME280;23694;43.274;26.924;2023-02-19T06:12:32;98882.84;;;13.13;41.74
37856;BME280;23694;43.274;26.924;2023-02-19T06:14:58;98881.88;;;13.14;42.04
37856;BME280;23694;43.274;26.924;2023-02-19T06:17:24;98886.78;;;13.30;41.76
37856;BME280;23694;43.274;26.924;2023-02-19T06:19:50;98880.38;;;13.55;41.32
37856;BME280;23694;43.274;26.924;2023-02-19T06:22:16;98881.47;;;13.52;41.42
37856;BME280;23694;43.274;26.924;2023-02-19T06:24:42;98884.75;;;13.11;42.44
37856;BME280;23694;43.274;26.924;2023-02-19T06:27:09;98875.31;;;12.97;42.55
37856;BME280;23694;43.274;26.924;2023-02-19T06:29:35;98880.47;;;13.21;42.38
37856;BME280;23694;43.274;26.924;2023-02-19T06:32:04;98893.56;;;13.44;42.05
37856;BME280;23694;43.274;26.924;2023-02-19T06:34:31;98897.69;;;13.69;42.06
37856;BME280;23694;43.274;26.924;2023-02-19T06:36:58;98913.56;;;13.78;41.45
37856;BME280;23694;43.274;26.924;2023-02-19T06:39:25;98900.56;;;14.18;40.83
37856;BME280;23694;43.274;26.924;2023-02-19T06:41:54;98903.88;;;14.52;40.46
37856;BME280;23694;43.274;26.924;2023-02-19T06:44:21;98909.47;;;15.89;37.55
37856;BME280;23694;43.274;26.924;2023-02-19T06:46:47;98903.03;;;16.21;36.97
37856;BME280;23694;43.274;26.924;2023-02-19T06:49:13;98891.13;;;17.10;35.40
37856;BME280;23694;43.274;26.924;2023-02-19T06:51:40;98885.28;;;17.79;34.08
37856;BME280;23694;43.274;26.924;2023-02-19T06:54:06;98909.41;;;18.29;33.31
37856;BME280;23694;43.274;26.924;2023-02-19T06:56:37;98907.44;;;18.57;32.67
37856;BME280;23694;43.274;26.924;2023-02-19T06:59:07;98931.31;;;16.86;35.54
37856;BME280;23694;43.274;26.924;2023-02-19T07:01:34;98936.41;;;16.02;37.41
37856;BME280;23694;43.274;26.924;2023-02-19T07:04:01;98946.56;;;15.38;38.53
37856;BME280;23694;43.274;26.924;2023-02-19T07:06:28;98956.69;;;15.33;39.04
37856;BME280;23694;43.274;26.924;2023-02-19T07:08:56;98946.94;;;14.93;39.85
37856;BME280;23694;43.274;26.924;2023-02-19T07:11:22;98945.72;;;14.67;40.63
37856;BME280;23694;43.274;26.924;2023-02-19T07:13:54;98949.75;;;14.71;40.65
37856;BME280;23694;43.274;26.924;2023-02-19T07:16:20;98954.00;;;14.41;41.34
37856;BME280;23694;43.274;26.924;2023-02-19T07:18:46;98953.25;;;14.50;41.41
37856;BME280;23694;43.274;26.924;2023-02-19T07:21:13;98950.47;;;14.20;42.39
37856;BME280;23694;43.274;26.924;2023-02-19T07:23:40;98956.59;;;14.20;42.08
37856;BME280;23694;43.274;26.924;2023-02-19T07:26:18;98961.72;;;14.22;42.26
37856;BME280;23694;43.274;26.924;2023-02-19T07:28:46;98967.78;;;14.45;41.98
37856;BME280;23694;43.274;26.924;2023-02-19T07:31:14;98978.25;;;14.56;42.10
37856;BME280;23694;43.274;26.924;2023-02-19T07:33:44;98967.59;;;14.57;41.63
37856;BME280;23694;43.274;26.924;2023-02-19T07:36:11;98966.75;;;14.57;42.14
37856;BME280;23694;43.274;26.924;2023-02-19T07:38:37;98964.50;;;14.52;42.28
37856;BME280;23694;43.274;26.924;2023-02-19T07:41:04;98969.44;;;14.67;41.92
37856;BME280;23694;43.274;26.924;2023-02-19T07:43:32;98963.81;;;14.39;42.89
37856;BME280;23694;43.274;26.924;2023-02-19T07:46:07;98972.56;;;14.40;42.77
37856;BME280;23694;43.274;26.924;2023-02-19T07:48:35;98976.28;;;14.37;43.14
37856;BME280;23694;43.274;26.924;2023-02-19T07:51:02;98968.56;;;14.87;42.02
37856;BME280;23694;43.274;26.924;2023-02-19T07:53:30;98976.78;;;14.63;42.52
37856;BME280;23694;43.274;26.924;2023-02-19T07:56:00;98978.66;;;15.03;41.73
37856;BME280;23694;43.274;26.924;2023-02-19T07:58:27;98980.16;;;15.26;41.58
37856;BME280;23694;43.274;26.924;2023-02-19T08:00:53;98973.81;;;15.38;41.24
37856;BME280;23694;43.274;26.924;2023-02-19T08:03:20;98988.03;;;15.57;41.01
37856;BME280;23694;43.274;26.924;2023-02-19T08:05:46;98976.31;;;15.70;40.71
37856;BME280;23694;43.274;26.924;2023-02-19T08:08:15;98977.94;;;15.62;40.84
37856;BME280;23694;43.274;26.924;2023-02-19T08:10:41;98977.41;;;15.68;40.62
37856;BME280;23694;43.274;26.924;2023-02-19T08:13:28;98968.25;;;15.81;40.68
37856;BME280;23694;43.274;26.924;2023-02-19T08:16:09;98964.50;;;15.84;40.43
37856;BME280;23694;43.274;26.924;2023-02-19T08:18:35;98961.84;;;15.65;41.09
37856;BME280;23694;43.274;26.924;2023-02-19T08:21:01;98969.47;;;15.68;41.23
37856;BME280;23694;43.274;26.924;2023-02-19T08:23:28;98974.72;;;15.58;41.47
37856;BME280;23694;43.274;26.924;2023-02-19T08:25:58;98969.78;;;15.74;40.97
37856;BME280;23694;43.274;26.924;2023-02-19T08:28:25;98964.50;;;15.74;40.84
37856;BME280;23694;43.274;26.924;2023-02-19T08:30:52;98960.47;;;15.70;41.33
37856;BME280;23694;43.274;26.924;2023-02-19T08:33:19;98951.25;;;15.25;42.14
37856;BME280;23694;43.274;26.924;2023-02-19T08:35:46;98969.38;;;15.48;41.80
37856;BME280;23694;43.274;26.924;2023-02-19T08:38:13;98950.81;;;15.60;41.43
37856;BME280;23694;43.274;26.924;2023-02-19T08:40:41;98961.56;;;15.77;41.33
37856;BME280;23694;43.274;26.924;2023-02-19T08:43:10;98957.84;;;15.90;41.06
37856;BME280;23694;43.274;26.924;2023-02-19T08:45:38;98961.63;;;15.57;41.61
37856;BME280;23694;43.274;26.924;2023-02-19T08:48:04;98963.94;;;16.00;40.99
37856;BME280;23694;43.274;26.924;2023-02-19T08:50:31;98963.81;;;16.01;41.11
37856;BME280;23694;43.274;26.924;2023-02-19T08:53:01;98959.50;;;16.39;40.32
37856;BME280;23694;43.274;26.924;2023-02-19T08:55:28;98963.56;;;16.33;40.34
37856;BME280;23694;43.274;26.924;2023-02-19T08:57:54;98962.84;;;16.41;40.34
37856;BME280;23694;43.274;26.924;2023-02-19T09:00:20;98965.19;;;16.54;39.80
37856;BME280;23694;43.274;26.924;2023-02-19T09:02:47;98964.34;;;16.53;39.89
37856;BME280;23694;43.274;26.924;2023-02-19T09:05:14;98952.09;;;16.71;39.41
37856;BME280;23694;43.274;26.924;2023-02-19T09:07:40;98947.22;;;16.76;39.17
37856;BME280;23694;43.274;26.924;2023-02-19T09:10:09;98963.25;;;16.65;39.64
37856;BME280;23694;43.274;26.924;2023-02-19T09:12:36;98946.25;;;16.68;39.61
37856;BME280;23694;43.274;26.924;2023-02-19T09:15:04;98965.69;;;16.96;39.13
37856;BME280;23694;43.274;26.924;2023-02-19T09:17:30;98945.94;;;16.80;39.02
37856;BME280;23694;43.274;26.924;2023-02-19T09:19:56;98950.94;;;16.84;39.48
37856;BME280;23694;43.274;26.924;2023-02-19T09:22:22;98954.59;;;16.63;39.62
37856;BME280;23694;43.274;26.924;2023-02-19T09:24:48;98949.56;;;16.79;39.56
37856;BME280;23694;43.274;26.924;2023-02-19T09:27:16;98955.56;;;17.19;38.83
37856;BME280;23694;43.274;26.924;2023-02-19T09:29:42;98946.09;;;17.16;38.81
37856;BME280;23694;43.274;26.924;2023-02-19T09:32:10;98949.88;;;17.14;38.62
37856;BME280;23694;43.274;26.924;2023-02-19T09:34:36;98941.31;;;17.29;38.26
37856;BME280;23694;43.274;26.924;2023-02-19T09:37:04;98946.59;;;17.02;38.67
37856;BME280;23694;43.274;26.924;2023-02-19T09:39:31;98941.25;;;16.55;39.82
37856;BME280;23694;43.274;26.924;2023-02-19T09:42:01;98936.88;;;16.83;39.28
37856;BME280;23694;43.274;26.924;2023-02-19T09:44:36;98944.34;;;17.07;39.15
37856;BME280;23694;43.274;26.924;2023-02-19T09:47:08;98944.47;;;17.05;39.13
37856;BME280;23694;43.274;26.924;2023-02-19T09:49:39;98941.84;;;17.05;38.93
37856;BME280;23694;43.274;26.924;2023-02-19T09:52:12;98928.91;;;17.02;39.26
37856;BME280;23694;43.274;26.924;2023-02-19T09:54:40;98931.78;;;17.09;39.04
37856;BME280;23694;43.274;26.924;2023-02-19T09:57:16;98916.56;;;17.21;38.87
37856;BME280;23694;43.274;26.924;2023-02-19T10:00:01;98914.84;;;17.57;38.26
37856;BME280;23694;43.274;26.924;2023-02-19T10:02:28;98898.22;;;17.82;36.99
37856;BME280;23694;43.274;26.924;2023-02-19T10:04:56;98914.94;;;17.55;38.00
37856;BME280;23694;43.274;26.924;2023-02-19T10:07:24;98906.09;;;17.47;38.10
37856;BME280;23694;43.274;26.924;2023-02-19T10:10:23;98908.28;;;17.51;37.93
37856;BME280;23694;43.274;26.924;2023-02-19T10:12:53;98893.56;;;17.21;38.49
37856;BME280;23694;43.274;26.924;2023-02-19T10:15:37;98896.66;;;17.17;38.61
37856;BME280;23694;43.274;26.924;2023-02-19T10:18:04;98901.41;;;17.13;38.72
37856;BME280;23694;43.274;26.924;2023-02-19T10:20:32;98898.34;;;17.35;38.44
37856;BME280;23694;43.274;26.924;2023-02-19T10:23:10;98882.06;;;17.58;38.37
37856;BME280;23694;43.274;26.924;2023-02-19T10:25:44;98886.34;;;17.68;37.50
37856;BME280;23694;43.274;26.924;2023-02-19T10:28:17;98879.97;;;17.97;36.96
37856;BME280;23694;43.274;26.924;2023-02-19T10:30:44;98865.63;;;17.54;37.39
37856;BME280;23694;43.274;26.924;2023-02-19T10:33:14;98868.06;;;17.65;37.25
37856;BME280;23694;43.274;26.924;2023-02-19T10:38:39;98864.00;;;17.71;37.14
37856;BME280;23694;43.274;26.924;2023-02-19T10:41:15;98868.00;;;17.93;36.32
37856;BME280;23694;43.274;26.924;2023-02-19T10:44:37;98843.88;;;17.78;36.91
37856;BME280;23694;43.274;26.924;2023-02-19T10:46:56;98843.84;;;17.60;37.25
37856;BME280;23694;43.274;26.924;2023-02-19T10:49:31;98841.22;;;17.78;37.54
37856;BME280;23694;43.274;26.924;2023-02-19T10:52:11;98831.59;;;17.95;36.91
37856;BME280;23694;43.274;26.924;2023-02-19T10:54:43;98825.53;;;18.28;36.35
37856;BME280;23694;43.274;26.924;2023-02-19T10:59:49;98816.75;;;18.28;36.18
37856;BME280;23694;43.274;26.924;2023-02-19T11:02:17;98803.22;;;18.13;36.24
37856;BME280;23694;43.274;26.924;2023-02-19T11:07:43;98818.13;;;18.32;35.87
37856;BME280;23694;43.274;26.924;2023-02-19T11:10:20;98810.84;;;18.16;36.47
37856;BME280;23694;43.274;26.924;2023-02-19T11:12:49;98812.38;;;17.93;36.74
37856;BME280;23694;43.274;26.924;2023-02-19T11:15:21;98814.78;;;17.86;36.97
37856;BME280;23694;43.274;26.924;2023-02-19T11:17:57;98792.97;;;17.92;36.44
37856;BME280;23694;43.274;26.924;2023-02-19T11:20:25;98795.78;;;18.17;36.57
37856;BME280;23694;43.274;26.924;2023-02-19T11:22:56;98795.25;;;18.31;36.21
37856;BME280;23694;43.274;26.924;2023-02-19T11:25:23;98808.47;;;18.57;35.97
37856;BME280;23694;43.274;26.924;2023-02-19T11:27:59;98811.94;;;18.57;35.74
37856;BME280;23694;43.274;26.924;2023-02-19T11:32:56;98796.13;;;18.74;35.42
37856;BME280;23694;43.274;26.924;2023-02-19T11:35:38;98764.41;;;18.64;35.57
37856;BME280;23694;43.274;26.924;2023-02-19T11:38:09;98785.69;;;18.46;36.16
37856;BME280;23694;43.274;26.924;2023-02-19T11:40:43;98787.84;;;18.77;35.36
37856;BME280;23694;43.274;26.924;2023-02-19T11:46:01;98802.00;;;18.59;35.15
37856;BME280;23694;43.274;26.924;2023-02-19T11:48:38;98783.06;;;18.20;35.44
37856;BME280;23694;43.274;26.924;2023-02-19T11:53:58;98783.78;;;17.79;36.47
37856;BME280;23694;43.274;26.924;2023-02-19T11:56:32;98771.31;;;17.97;36.22
37856;BME280;23694;43.274;26.924;2023-02-19T11:59:01;98775.72;;;18.14;36.08
37856;BME280;23694;43.274;26.924;2023-02-19T12:01:49;98778.19;;;18.33;35.68
37856;BME280;23694;43.274;26.924;2023-02-19T12:18:19;98764.50;;;17.94;36.86
37856;BME280;23694;43.274;26.924;2023-02-19T12:21:13;98753.84;;;17.86;36.92
37856;BME280;23694;43.274;26.924;2023-02-19T12:23:46;98753.59;;;17.97;36.73
37856;BME280;23694;43.274;26.924;2023-02-19T12:26:29;98753.69;;;17.88;36.40
37856;BME280;23694;43.274;26.924;2023-02-19T12:32:22;98756.88;;;17.91;36.24
37856;BME280;23694;43.274;26.924;2023-02-19T12:40:57;98760.81;;;17.52;37.50
37856;BME280;23694;43.274;26.924;2023-02-19T12:43:30;98752.50;;;17.47;37.17
37856;BME280;23694;43.274;26.924;2023-02-19T12:46:01;98749.88;;;17.47;37.72
37856;BME280;23694;43.274;26.924;2023-02-19T12:48:49;98747.06;;;17.66;37.02
37856;BME280;23694;43.274;26.924;2023-02-19T12:51:31;98756.56;;;17.68;36.92
37856;BME280;23694;43.274;26.924;2023-02-19T12:54:03;98742.69;;;17.74;36.83
37856;BME280;23694;43.274;26.924;2023-02-19T12:56:39;98748.13;;;17.73;36.60
37856;BME280;23694;43.274;26.924;2023-02-19T13:02:13;98734.72;;;18.00;36.25
37856;BME280;23694;43.274;26.924;2023-02-19T13:07:58;98729.38;;;17.66;36.89
37856;BME280;23694;43.274;26.924;2023-02-19T13:10:34;98729.75;;;17.97;36.43
37856;BME280;23694;43.274;26.924;2023-02-19T13:13:05;98724.28;;;17.99;36.17
37856;BME280;23694;43.274;26.924;2023-02-19T13:18:02;98730.22;;;17.93;35.84
37856;BME280;23694;43.274;26.924;2023-02-19T13:20:33;98709.53;;;17.96;35.64
37856;BME280;23694;43.274;26.924;2023-02-19T13:23:10;98711.59;;;17.59;35.79
37856;BME280;23694;43.274;26.924;2023-02-19T13:29:10;98706.22;;;17.68;35.97
37856;BME280;23694;43.274;26.924;2023-02-19T13:34:36;98716.66;;;17.70;35.88
37856;BME280;23694;43.274;26.924;2023-02-19T13:37:06;98719.63;;;17.93;35.70
37856;BME280;23694;43.274;26.924;2023-02-19T13:39:33;98713.69;;;17.99;35.62
37856;BME280;23694;43.274;26.924;2023-02-19T13:41:59;98716.59;;;17.88;35.33
37856;BME280;23694;43.274;26.924;2023-02-19T13:44:28;98706.91;;;17.70;35.60
37856;BME280;23694;43.274;26.924;2023-02-19T13:46:54;98706.59;;;17.56;35.83
37856;BME280;23694;43.274;26.924;2023-02-19T13:51:56;98720.69;;;17.56;36.03
37856;BME280;23694;43.274;26.924;2023-02-19T13:54:33;98700.94;;;17.33;36.31
37856;BME280;23694;43.274;26.924;2023-02-19T13:57:18;98707.00;;;17.25;36.85
37856;BME280;23694;43.274;26.924;2023-02-19T13:59:45;98704.50;;;17.24;36.50
37856;BME280;23694;43.274;26.924;2023-02-19T14:02:33;98710.31;;;17.27;36.65
37856;BME280;23694;43.274;26.924;2023-02-19T14:05:09;98712.44;;;17.41;36.41
37856;BME280;23694;43.274;26.924;2023-02-19T14:07:48;98711.38;;;17.34;36.41
37856;BME280;23694;43.274;26.924;2023-02-19T14:16:28;98709.44;;;17.19;36.69
37856;BME280;23694;43.274;26.924;2023-02-19T14:18:54;98715.03;;;17.16;36.88
37856;BME280;23694;43.274;26.924;2023-02-19T14:21:24;98718.28;;;17.09;36.65
37856;BME280;23694;43.274;26.924;2023-02-19T14:23:59;98709.44;;;17.19;36.58
37856;BME280;23694;43.274;26.924;2023-02-19T14:26:26;98717.06;;;17.22;36.60
37856;BME280;23694;43.274;26.924;2023-02-19T14:28:55;98717.91;;;17.22;36.76
37856;BME280;23694;43.274;26.924;2023-02-19T14:31:30;98719.78;;;17.30;36.37
37856;BME280;23694;43.274;26.924;2023-02-19T14:34:00;98721.97;;;17.34;36.55
37856;BME280;23694;43.274;26.924;2023-02-19T14:39:16;98712.00;;;16.93;36.87
37856;BME280;23694;43.274;26.924;2023-02-19T14:41:59;98712.22;;;16.99;36.90
37856;BME280;23694;43.274;26.924;2023-02-19T14:44:45;98716.41;;;16.74;37.44
37856;BME280;23694;43.274;26.924;2023-02-19T14:47:15;98710.06;;;16.67;37.50